sensor_id;sensor_type;location;lat;lon;timestamp;temperature;humidity
37281;DHT22;23169;41.804;12.596;2023-06-04T00:01:45;19.80;20.50
37281;DHT22;23169;41.804;12.596;2023-06-04T00:04:14;19.80;19.00
37281;DHT22;23169;41.804;12.596;2023-06-04T00:06:43;19.80;17.50
37281;DHT22;23169;41.804;12.596;2023-06-04T00:09:12;19.80;17.00
37281;DHT22;23169;41.804;12.596;2023-06-04T00:11:41;19.80;16.90
37281;DHT22;23169;41.804;12.596;2023-06-04T00:14:10;19.90;16.90
37281;DHT22;23169;41.804;12.596;2023-06-04T00:16:40;19.90;16.40
37281;DHT22;23169;41.804;12.596;2023-06-04T00:19:11;19.90;15.20
37281;DHT22;23169;41.804;12.596;2023-06-04T00:21:40;19.90;14.60
37281;DHT22;23169;41.804;12.596;2023-06-04T00:24:11;19.90;14.70
37281;DHT22;23169;41.804;12.596;2023-06-04T00:26:40;19.90;13.30
37281;DHT22;23169;41.804;12.596;2023-06-04T00:29:09;19.70;11.80
37281;DHT22;23169;41.804;12.596;2023-06-04T00:31:39;19.80;13.90
37281;DHT22;23169;41.804;12.596;2023-06-04T00:34:08;19.80;14.10
37281;DHT22;23169;41.804;12.596;2023-06-04T00:36:39;19.80;14.20
37281;DHT22;23169;41.804;12.596;2023-06-04T00:39:08;19.90;13.90
37281;DHT22;23169;41.804;12.596;2023-06-04T00:41:38;19.90;22.20
37281;DHT22;23169;41.804;12.596;2023-06-04T00:44:07;19.90;13.50
37281;DHT22;23169;41.804;12.596;2023-06-04T00:46:37;19.80;22.10
37281;DHT22;23169;41.804;12.596;2023-06-04T00:49:06;19.90;13.40
37281;DHT22;23169;41.804;12.596;2023-06-04T00:51:35;19.90;13.20
37281;DHT22;23169;41.804;12.596;2023-06-04T00:54:04;19.80;12.60
37281;DHT22;23169;41.804;12.596;2023-06-04T00:56:41;19.80;12.40
37281;DHT22;23169;41.804;12.596;2023-06-04T00:59:10;19.80;12.80
37281;DHT22;23169;41.804;12.596;2023-06-04T01:01:54;19.70;6.40
37281;DHT22;23169;41.804;12.596;2023-06-04T01:04:45;19.70;13.60
37281;DHT22;23169;41.804;12.596;2023-06-04T01:07:15;19.70;12.80
37281;DHT22;23169;41.804;12.596;2023-06-04T01:09:45;19.60;14.10
37281;DHT22;23169;41.804;12.596;2023-06-04T01:12:13;19.60;13.70
37281;DHT22;23169;41.804;12.596;2023-06-04T01:14:42;19.60;15.10
37281;DHT22;23169;41.804;12.596;2023-06-04T01:17:39;19.50;8.50
37281;DHT22;23169;41.804;12.596;2023-06-04T01:20:40;19.40;17.20
37281;DHT22;23169;41.804;12.596;2023-06-04T01:26:04;19.30;20.50
37281;DHT22;23169;41.804;12.596;2023-06-04T01:28:36;19.30;19.80
37281;DHT22;23169;41.804;12.596;2023-06-04T01:31:06;19.30;20.70
37281;DHT22;23169;41.804;12.596;2023-06-04T01:33:37;19.30;21.70
37281;DHT22;23169;41.804;12.596;2023-06-04T01:36:06;19.30;22.30
37281;DHT22;23169;41.804;12.596;2023-06-04T01:38:39;19.20;23.20
37281;DHT22;23169;41.804;12.596;2023-06-04T01:41:12;19.20;23.50
37281;DHT22;23169;41.804;12.596;2023-06-04T01:48:41;19.20;19.00
37281;DHT22;23169;41.804;12.596;2023-06-04T01:51:09;19.20;29.20
37281;DHT22;23169;41.804;12.596;2023-06-04T01:53:38;19.20;29.20
37281;DHT22;23169;41.804;12.596;2023-06-04T01:56:07;19.10;29.10
37281;DHT22;23169;41.804;12.596;2023-06-04T01:58:38;19.10;29.50
37281;DHT22;23169;41.804;12.596;2023-06-04T02:01:07;19.10;29.60
37281;DHT22;23169;41.804;12.596;2023-06-04T02:03:38;19.00;29.70
37281;DHT22;23169;41.804;12.596;2023-06-04T02:06:12;19.10;30.00
37281;DHT22;23169;41.804;12.596;2023-06-04T02:08:42;19.00;30.70
37281;DHT22;23169;41.804;12.596;2023-06-04T02:11:11;18.90;30.90
37281;DHT22;23169;41.804;12.596;2023-06-04T02:13:40;18.90;31.80
37281;DHT22;23169;41.804;12.596;2023-06-04T02:16:08;18.80;40.00
37281;DHT22;23169;41.804;12.596;2023-06-04T02:18:39;18.80;31.80
37281;DHT22;23169;41.804;12.596;2023-06-04T02:21:08;18.80;31.90
37281;DHT22;23169;41.804;12.596;2023-06-04T02:23:54;18.70;32.50
37281;DHT22;23169;41.804;12.596;2023-06-04T02:26:22;18.70;35.00
37281;DHT22;23169;41.804;12.596;2023-06-04T02:29:03;18.70;36.30
37281;DHT22;23169;41.804;12.596;2023-06-04T02:31:32;18.70;42.10
37281;DHT22;23169;41.804;12.596;2023-06-04T02:34:01;18.80;41.30
37281;DHT22;23169;41.804;12.596;2023-06-04T02:36:38;18.80;39.90
37281;DHT22;23169;41.804;12.596;2023-06-04T02:39:09;18.70;42.20
37281;DHT22;23169;41.804;12.596;2023-06-04T02:41:41;18.70;42.10
37281;DHT22;23169;41.804;12.596;2023-06-04T02:44:10;18.60;43.80
37281;DHT22;23169;41.804;12.596;2023-06-04T02:46:47;18.60;44.60
37281;DHT22;23169;41.804;12.596;2023-06-04T02:49:16;18.60;47.10
37281;DHT22;23169;41.804;12.596;2023-06-04T02:51:45;18.60;48.20
37281;DHT22;23169;41.804;12.596;2023-06-04T02:54:19;18.60;49.80
37281;DHT22;23169;41.804;12.596;2023-06-04T02:56:49;18.60;47.50
37281;DHT22;23169;41.804;12.596;2023-06-04T02:59:18;18.70;47.80
37281;DHT22;23169;41.804;12.596;2023-06-04T03:01:47;18.70;42.50
37281;DHT22;23169;41.804;12.596;2023-06-04T03:04:18;18.70;40.10
37281;DHT22;23169;41.804;12.596;2023-06-04T03:06:48;18.70;38.90
37281;DHT22;23169;41.804;12.596;2023-06-04T03:09:25;18.70;38.40
37281;DHT22;23169;41.804;12.596;2023-06-04T03:11:56;18.70;37.60
37281;DHT22;23169;41.804;12.596;2023-06-04T03:14:42;18.70;36.90
37281;DHT22;23169;41.804;12.596;2023-06-04T03:17:30;18.50;35.90
37281;DHT22;23169;41.804;12.596;2023-06-04T03:20:01;18.60;36.90
37281;DHT22;23169;41.804;12.596;2023-06-04T03:22:30;18.60;35.90
37281;DHT22;23169;41.804;12.596;2023-06-04T03:24:59;18.50;36.10
37281;DHT22;23169;41.804;12.596;2023-06-04T03:27:31;18.50;36.30
37281;DHT22;23169;41.804;12.596;2023-06-04T03:30:00;18.40;35.70
37281;DHT22;23169;41.804;12.596;2023-06-04T03:32:39;18.40;36.10
37281;DHT22;23169;41.804;12.596;2023-06-04T03:35:09;18.50;36.50
37281;DHT22;23169;41.804;12.596;2023-06-04T03:37:37;18.50;36.70
37281;DHT22;23169;41.804;12.596;2023-06-04T03:40:07;18.60;33.80
37281;DHT22;23169;41.804;12.596;2023-06-04T03:42:53;18.60;29.80
37281;DHT22;23169;41.804;12.596;2023-06-04T03:45:41;18.60;27.80
37281;DHT22;23169;41.804;12.596;2023-06-04T03:48:30;18.60;28.40
37281;DHT22;23169;41.804;12.596;2023-06-04T03:51:16;18.60;30.40
37281;DHT22;23169;41.804;12.596;2023-06-04T03:54:02;18.10;26.00
37281;DHT22;23169;41.804;12.596;2023-06-04T03:56:48;18.60;27.60
37281;DHT22;23169;41.804;12.596;2023-06-04T03:59:17;18.60;27.10
37281;DHT22;23169;41.804;12.596;2023-06-04T04:01:52;18.50;26.70
37281;DHT22;23169;41.804;12.596;2023-06-04T04:04:38;18.50;25.60
37281;DHT22;23169;41.804;12.596;2023-06-04T04:07:24;18.60;25.00
37281;DHT22;23169;41.804;12.596;2023-06-04T04:10:10;18.60;23.50
37281;DHT22;23169;41.804;12.596;2023-06-04T04:12:56;18.60;20.80
37281;DHT22;23169;41.804;12.596;2023-06-04T04:15:44;18.50;19.60
37281;DHT22;23169;41.804;12.596;2023-06-04T04:18:12;18.40;20.60
37281;DHT22;23169;41.804;12.596;2023-06-04T04:20:42;18.40;20.60
37281;DHT22;23169;41.804;12.596;2023-06-04T04:23:14;18.40;20.80
37281;DHT22;23169;41.804;12.596;2023-06-04T04:25:43;18.30;21.20
37281;DHT22;23169;41.804;12.596;2023-06-04T04:28:13;18.30;22.10
37281;DHT22;23169;41.804;12.596;2023-06-04T04:30:41;18.30;23.40
37281;DHT22;23169;41.804;12.596;2023-06-04T04:33:10;18.30;24.00
37281;DHT22;23169;41.804;12.596;2023-06-04T04:35:39;18.30;28.80
37281;DHT22;23169;41.804;12.596;2023-06-04T04:38:08;18.30;32.80
37281;DHT22;23169;41.804;12.596;2023-06-04T04:40:39;18.20;34.40
37281;DHT22;23169;41.804;12.596;2023-06-04T04:43:08;18.20;34.50
37281;DHT22;23169;41.804;12.596;2023-06-04T04:45:37;18.20;34.60
37281;DHT22;23169;41.804;12.596;2023-06-04T04:48:06;18.20;34.80
37281;DHT22;23169;41.804;12.596;2023-06-04T04:50:34;18.20;34.40
37281;DHT22;23169;41.804;12.596;2023-06-04T04:53:05;18.80;36.30
37281;DHT22;23169;41.804;12.596;2023-06-04T04:55:36;18.30;35.90
37281;DHT22;23169;41.804;12.596;2023-06-04T04:58:04;18.40;34.50
37281;DHT22;23169;41.804;12.596;2023-06-04T05:00:34;18.50;32.80
37281;DHT22;23169;41.804;12.596;2023-06-04T05:03:03;18.50;31.90
37281;DHT22;23169;41.804;12.596;2023-06-04T05:05:32;18.50;30.80
37281;DHT22;23169;41.804;12.596;2023-06-04T05:08:04;18.60;31.10
37281;DHT22;23169;41.804;12.596;2023-06-04T05:10:33;18.70;30.70
37281;DHT22;23169;41.804;12.596;2023-06-04T05:13:04;18.80;30.00
37281;DHT22;23169;41.804;12.596;2023-06-04T05:15:36;18.80;28.80
37281;DHT22;23169;41.804;12.596;2023-06-04T05:18:05;18.90;27.70
37281;DHT22;23169;41.804;12.596;2023-06-04T05:20:34;18.90;26.90
37281;DHT22;23169;41.804;12.596;2023-06-04T05:23:09;19.10;25.40
37281;DHT22;23169;41.804;12.596;2023-06-04T05:25:40;19.30;24.50
37281;DHT22;23169;41.804;12.596;2023-06-04T05:28:12;19.30;23.30
37281;DHT22;23169;41.804;12.596;2023-06-04T05:30:42;19.50;22.70
37281;DHT22;23169;41.804;12.596;2023-06-04T05:33:11;19.50;22.00
37281;DHT22;23169;41.804;12.596;2023-06-04T05:35:47;19.60;21.20
37281;DHT22;23169;41.804;12.596;2023-06-04T05:38:20;19.70;20.30
37281;DHT22;23169;41.804;12.596;2023-06-04T05:40:54;19.80;19.40
37281;DHT22;23169;41.804;12.596;2023-06-04T05:43:24;19.80;20.30
37281;DHT22;23169;41.804;12.596;2023-06-04T05:45:52;19.80;22.50
37281;DHT22;23169;41.804;12.596;2023-06-04T05:48:22;19.60;23.90
37281;DHT22;23169;41.804;12.596;2023-06-04T05:50:51;19.60;25.50
37281;DHT22;23169;41.804;12.596;2023-06-04T05:53:19;19.70;25.00
37281;DHT22;23169;41.804;12.596;2023-06-04T05:55:48;19.70;25.90
37281;DHT22;23169;41.804;12.596;2023-06-04T06:03:15;19.80;20.00
37281;DHT22;23169;41.804;12.596;2023-06-04T06:05:46;19.90;27.60
37281;DHT22;23169;41.804;12.596;2023-06-04T06:08:15;20.00;26.30
37281;DHT22;23169;41.804;12.596;2023-06-04T06:10:44;20.30;26.20
37281;DHT22;23169;41.804;12.596;2023-06-04T06:13:15;20.40;24.80
37281;DHT22;23169;41.804;12.596;2023-06-04T06:15:46;20.50;24.60
37281;DHT22;23169;41.804;12.596;2023-06-04T06:18:16;20.60;23.90
37281;DHT22;23169;41.804;12.596;2023-06-04T06:20:45;20.70;23.10
37281;DHT22;23169;41.804;12.596;2023-06-04T06:23:14;20.70;22.40
37281;DHT22;23169;41.804;12.596;2023-06-04T06:25:44;20.60;22.60
37281;DHT22;23169;41.804;12.596;2023-06-04T06:28:14;20.60;23.30
37281;DHT22;23169;41.804;12.596;2023-06-04T06:30:43;20.60;24.20
37281;DHT22;23169;41.804;12.596;2023-06-04T06:33:13;20.60;25.30
37281;DHT22;23169;41.804;12.596;2023-06-04T06:35:41;20.60;27.00
37281;DHT22;23169;41.804;12.596;2023-06-04T06:38:10;20.60;28.10
37281;DHT22;23169;41.804;12.596;2023-06-04T06:40:41;20.60;28.30
37281;DHT22;23169;41.804;12.596;2023-06-04T06:43:09;20.70;28.40
37281;DHT22;23169;41.804;12.596;2023-06-04T06:45:38;20.90;27.30
37281;DHT22;23169;41.804;12.596;2023-06-04T06:48:07;21.20;25.80
37281;DHT22;23169;41.804;12.596;2023-06-04T06:50:36;21.40;24.10
37281;DHT22;23169;41.804;12.596;2023-06-04T06:53:04;21.80;12.50
37281;DHT22;23169;41.804;12.596;2023-06-04T06:55:33;21.60;16.40
37281;DHT22;23169;41.804;12.596;2023-06-04T06:58:04;21.60;12.30
37281;DHT22;23169;41.804;12.596;2023-06-04T07:00:34;21.70;10.20
37281;DHT22;23169;41.804;12.596;2023-06-04T07:03:02;21.80;9.20
37281;DHT22;23169;41.804;12.596;2023-06-04T07:05:32;22.00;9.10
37281;DHT22;23169;41.804;12.596;2023-06-04T07:08:08;22.20;7.20
37281;DHT22;23169;41.804;12.596;2023-06-04T07:10:37;22.40;3.70
37281;DHT22;23169;41.804;12.596;2023-06-04T07:13:06;22.50;2.50
37281;DHT22;23169;41.804;12.596;2023-06-04T07:15:34;22.60;1.00
37281;DHT22;23169;41.804;12.596;2023-06-04T07:18:03;22.50;1.00
37281;DHT22;23169;41.804;12.596;2023-06-04T07:20:32;22.60;1.00
37281;DHT22;23169;41.804;12.596;2023-06-04T07:23:01;22.70;1.00
37281;DHT22;23169;41.804;12.596;2023-06-04T07:25:29;22.80;1.00
37281;DHT22;23169;41.804;12.596;2023-06-04T07:27:59;22.90;1.00
37281;DHT22;23169;41.804;12.596;2023-06-04T07:30:28;23.00;1.00
37281;DHT22;23169;41.804;12.596;2023-06-04T07:32:59;23.10;1.00
37281;DHT22;23169;41.804;12.596;2023-06-04T07:35:28;23.10;1.00
37281;DHT22;23169;41.804;12.596;2023-06-04T07:38:00;22.90;1.00
37281;DHT22;23169;41.804;12.596;2023-06-04T07:40:30;22.80;1.00
37281;DHT22;23169;41.804;12.596;2023-06-04T07:43:01;22.70;1.00
37281;DHT22;23169;41.804;12.596;2023-06-04T07:45:42;22.80;1.00
37281;DHT22;23169;41.804;12.596;2023-06-04T07:48:11;23.10;1.00
37281;DHT22;23169;41.804;12.596;2023-06-04T07:50:40;22.80;1.00
37281;DHT22;23169;41.804;12.596;2023-06-04T07:53:11;23.00;1.00
37281;DHT22;23169;41.804;12.596;2023-06-04T07:55:40;23.20;1.00
37281;DHT22;23169;41.804;12.596;2023-06-04T07:58:09;23.40;1.00
37281;DHT22;23169;41.804;12.596;2023-06-04T08:00:38;23.60;1.00
37281;DHT22;23169;41.804;12.596;2023-06-04T08:03:07;23.60;1.00
37281;DHT22;23169;41.804;12.596;2023-06-04T08:05:36;23.90;1.00
37281;DHT22;23169;41.804;12.596;2023-06-04T08:08:05;24.10;1.00
37281;DHT22;23169;41.804;12.596;2023-06-04T08:10:34;24.20;1.00
37281;DHT22;23169;41.804;12.596;2023-06-04T08:13:03;23.90;1.00
37281;DHT22;23169;41.804;12.596;2023-06-04T08:15:32;23.60;1.00
37281;DHT22;23169;41.804;12.596;2023-06-04T08:18:00;23.50;1.00
37281;DHT22;23169;41.804;12.596;2023-06-04T08:20:35;23.70;1.00
37281;DHT22;23169;41.804;12.596;2023-06-04T08:23:07;23.60;1.00
37281;DHT22;23169;41.804;12.596;2023-06-04T08:25:35;23.60;1.00
37281;DHT22;23169;41.804;12.596;2023-06-04T08:28:04;23.90;1.00
37281;DHT22;23169;41.804;12.596;2023-06-04T08:30:34;24.00;1.00
37281;DHT22;23169;41.804;12.596;2023-06-04T08:33:04;23.90;1.00
37281;DHT22;23169;41.804;12.596;2023-06-04T08:35:33;24.00;1.00
37281;DHT22;23169;41.804;12.596;2023-06-04T08:38:02;24.20;1.00
37281;DHT22;23169;41.804;12.596;2023-06-04T08:40:31;24.20;1.00
37281;DHT22;23169;41.804;12.596;2023-06-04T08:43:01;24.40;1.00
37281;DHT22;23169;41.804;12.596;2023-06-04T08:45:32;24.60;1.00
37281;DHT22;23169;41.804;12.596;2023-06-04T08:48:02;24.30;1.00
37281;DHT22;23169;41.804;12.596;2023-06-04T08:50:32;24.30;1.00
37281;DHT22;23169;41.804;12.596;2023-06-04T08:53:01;24.00;1.00
37281;DHT22;23169;41.804;12.596;2023-06-04T08:55:31;23.90;1.00
37281;DHT22;23169;41.804;12.596;2023-06-04T08:58:00;23.80;1.00
37281;DHT22;23169;41.804;12.596;2023-06-04T09:00:31;24.00;1.00
37281;DHT22;23169;41.804;12.596;2023-06-04T09:03:02;24.00;1.00
37281;DHT22;23169;41.804;12.596;2023-06-04T09:05:32;24.10;1.00
37281;DHT22;23169;41.804;12.596;2023-06-04T09:08:21;24.00;1.00
37281;DHT22;23169;41.804;12.596;2023-06-04T09:10:53;23.90;1.00
37281;DHT22;23169;41.804;12.596;2023-06-04T09:13:23;24.10;1.00
37281;DHT22;23169;41.804;12.596;2023-06-04T09:16:01;24.60;1.00
37281;DHT22;23169;41.804;12.596;2023-06-04T09:18:31;24.80;1.00
37281;DHT22;23169;41.804;12.596;2023-06-04T09:21:04;24.60;1.00
37281;DHT22;23169;41.804;12.596;2023-06-04T09:23:45;24.60;1.00
37281;DHT22;23169;41.804;12.596;2023-06-04T09:26:14;24.70;1.00
37281;DHT22;23169;41.804;12.596;2023-06-04T09:28:45;25.00;1.00
37281;DHT22;23169;41.804;12.596;2023-06-04T09:31:16;25.30;1.00
37281;DHT22;23169;41.804;12.596;2023-06-04T09:33:49;25.20;1.00
37281;DHT22;23169;41.804;12.596;2023-06-04T09:36:19;25.50;1.00
37281;DHT22;23169;41.804;12.596;2023-06-04T09:38:48;25.70;1.00
37281;DHT22;23169;41.804;12.596;2023-06-04T09:41:18;25.70;1.00
37281;DHT22;23169;41.804;12.596;2023-06-04T09:43:49;26.10;1.00
37281;DHT22;23169;41.804;12.596;2023-06-04T09:46:18;25.90;1.00
37281;DHT22;23169;41.804;12.596;2023-06-04T09:48:48;25.90;1.00
37281;DHT22;23169;41.804;12.596;2023-06-04T09:51:16;25.80;1.00
37281;DHT22;23169;41.804;12.596;2023-06-04T09:53:55;25.80;1.00
37281;DHT22;23169;41.804;12.596;2023-06-04T09:56:24;25.70;1.00
37281;DHT22;23169;41.804;12.596;2023-06-04T09:58:59;26.10;1.00
37281;DHT22;23169;41.804;12.596;2023-06-04T10:01:30;26.10;1.00
37281;DHT22;23169;41.804;12.596;2023-06-04T10:04:03;26.10;1.00
37281;DHT22;23169;41.804;12.596;2023-06-04T10:06:35;26.40;1.00
37281;DHT22;23169;41.804;12.596;2023-06-04T10:09:08;26.20;1.00
37281;DHT22;23169;41.804;12.596;2023-06-04T10:11:42;26.10;1.00
37281;DHT22;23169;41.804;12.596;2023-06-04T10:14:28;26.50;1.00
37281;DHT22;23169;41.804;12.596;2023-06-04T10:17:03;26.40;1.00
37281;DHT22;23169;41.804;12.596;2023-06-04T10:19:35;26.20;1.00
37281;DHT22;23169;41.804;12.596;2023-06-04T10:22:10;26.30;1.00
37281;DHT22;23169;41.804;12.596;2023-06-04T10:24:40;26.40;1.00
37281;DHT22;23169;41.804;12.596;2023-06-04T10:27:10;26.30;1.00
37281;DHT22;23169;41.804;12.596;2023-06-04T10:29:42;26.20;1.00
37281;DHT22;23169;41.804;12.596;2023-06-04T10:32:11;26.00;1.00
37281;DHT22;23169;41.804;12.596;2023-06-04T10:34:40;26.10;1.00
37281;DHT22;23169;41.804;12.596;2023-06-04T10:37:29;26.30;1.00
37281;DHT22;23169;41.804;12.596;2023-06-04T10:39:58;26.20;1.00
37281;DHT22;23169;41.804;12.596;2023-06-04T10:42:41;26.30;1.00
37281;DHT22;23169;41.804;12.596;2023-06-04T10:45:11;26.10;1.00
37281;DHT22;23169;41.804;12.596;2023-06-04T10:47:41;26.10;1.00
37281;DHT22;23169;41.804;12.596;2023-06-04T10:50:13;26.10;1.00
37281;DHT22;23169;41.804;12.596;2023-06-04T10:52:53;26.20;1.00
37281;DHT22;23169;41.804;12.596;2023-06-04T10:55:22;26.20;1.00
37281;DHT22;23169;41.804;12.596;2023-06-04T10:57:56;26.50;1.00
37281;DHT22;23169;41.804;12.596;2023-06-04T11:00:45;26.20;1.00
37281;DHT22;23169;41.804;12.596;2023-06-04T11:03:19;26.10;1.00
37281;DHT22;23169;41.804;12.596;2023-06-04T11:05:47;25.90;1.00
37281;DHT22;23169;41.804;12.596;2023-06-04T11:08:26;25.60;1.00
37281;DHT22;23169;41.804;12.596;2023-06-04T11:10:58;25.70;1.00
37281;DHT22;23169;41.804;12.596;2023-06-04T11:13:29;26.00;1.00
37281;DHT22;23169;41.804;12.596;2023-06-04T11:15:57;25.90;1.00
37281;DHT22;23169;41.804;12.596;2023-06-04T11:18:26;25.80;1.00
37281;DHT22;23169;41.804;12.596;2023-06-04T11:21:00;25.70;1.00
37281;DHT22;23169;41.804;12.596;2023-06-04T11:23:30;26.00;1.00
37281;DHT22;23169;41.804;12.596;2023-06-04T11:25:59;25.90;1.00
37281;DHT22;23169;41.804;12.596;2023-06-04T11:28:29;25.80;1.00
37281;DHT22;23169;41.804;12.596;2023-06-04T11:31:01;25.60;1.00
37281;DHT22;23169;41.804;12.596;2023-06-04T11:33:47;25.60;1.00
37281;DHT22;23169;41.804;12.596;2023-06-04T11:36:29;25.30;1.00
37281;DHT22;23169;41.804;12.596;2023-06-04T11:38:58;25.20;1.00
37281;DHT22;23169;41.804;12.596;2023-06-04T11:41:29;25.20;1.00
37281;DHT22;23169;41.804;12.596;2023-06-04T11:44:03;25.30;1.00
37281;DHT22;23169;41.804;12.596;2023-06-04T11:46:40;25.20;1.00
37281;DHT22;23169;41.804;12.596;2023-06-04T11:49:11;25.10;1.00
37281;DHT22;23169;41.804;12.596;2023-06-04T11:51:51;25.00;1.00
37281;DHT22;23169;41.804;12.596;2023-06-04T11:54:21;25.00;1.00
37281;DHT22;23169;41.804;12.596;2023-06-04T11:56:51;25.00;1.00
37281;DHT22;23169;41.804;12.596;2023-06-04T11:59:24;24.90;1.00
37281;DHT22;23169;41.804;12.596;2023-06-04T12:04:22;24.80;1.00
37281;DHT22;23169;41.804;12.596;2023-06-04T12:07:09;24.80;1.00
37281;DHT22;23169;41.804;12.596;2023-06-04T12:09:39;24.70;1.00
37281;DHT22;23169;41.804;12.596;2023-06-04T12:12:08;24.90;1.00
37281;DHT22;23169;41.804;12.596;2023-06-04T12:14:36;25.00;1.00
37281;DHT22;23169;41.804;12.596;2023-06-04T12:17:08;25.30;1.00
37281;DHT22;23169;41.804;12.596;2023-06-04T12:19:47;25.70;1.00
37281;DHT22;23169;41.804;12.596;2023-06-04T12:22:17;25.90;1.00
37281;DHT22;23169;41.804;12.596;2023-06-04T12:24:51;26.00;1.00
37281;DHT22;23169;41.804;12.596;2023-06-04T12:27:24;26.10;1.00
37281;DHT22;23169;41.804;12.596;2023-06-04T12:30:04;26.00;1.00
37281;DHT22;23169;41.804;12.596;2023-06-04T12:32:35;26.00;1.00
37281;DHT22;23169;41.804;12.596;2023-06-04T12:35:04;26.10;1.00
37281;DHT22;23169;41.804;12.596;2023-06-04T12:37:34;26.40;1.00
37281;DHT22;23169;41.804;12.596;2023-06-04T12:40:03;26.30;1.00
37281;DHT22;23169;41.804;12.596;2023-06-04T12:45:04;26.10;1.00
37281;DHT22;23169;41.804;12.596;2023-06-04T12:47:33;26.70;1.00
37281;DHT22;23169;41.804;12.596;2023-06-04T12:50:02;27.30;1.00
37281;DHT22;23169;41.804;12.596;2023-06-04T12:52:32;28.20;1.00
37281;DHT22;23169;41.804;12.596;2023-06-04T12:55:00;28.30;1.00
37281;DHT22;23169;41.804;12.596;2023-06-04T12:57:29;28.60;1.00
37281;DHT22;23169;41.804;12.596;2023-06-04T12:59:59;28.10;1.00
37281;DHT22;23169;41.804;12.596;2023-06-04T13:02:28;27.60;1.00
37281;DHT22;23169;41.804;12.596;2023-06-04T13:04:57;27.20;1.00
37281;DHT22;23169;41.804;12.596;2023-06-04T13:07:25;26.90;1.00
37281;DHT22;23169;41.804;12.596;2023-06-04T13:09:54;26.50;1.00
37281;DHT22;23169;41.804;12.596;2023-06-04T13:12:22;25.80;1.00
37281;DHT22;23169;41.804;12.596;2023-06-04T13:14:51;25.60;1.00
37281;DHT22;23169;41.804;12.596;2023-06-04T13:17:21;25.50;1.00
37281;DHT22;23169;41.804;12.596;2023-06-04T13:19:50;25.50;1.00
37281;DHT22;23169;41.804;12.596;2023-06-04T13:22:20;25.50;1.00
37281;DHT22;23169;41.804;12.596;2023-06-04T13:24:48;25.60;1.00
37281;DHT22;23169;41.804;12.596;2023-06-04T13:27:17;25.50;1.00
37281;DHT22;23169;41.804;12.596;2023-06-04T13:29:45;24.90;1.00
37281;DHT22;23169;41.804;12.596;2023-06-04T13:32:14;24.80;1.00
37281;DHT22;23169;41.804;12.596;2023-06-04T13:34:45;24.70;1.00
37281;DHT22;23169;41.804;12.596;2023-06-04T13:37:16;24.60;1.00
37281;DHT22;23169;41.804;12.596;2023-06-04T13:39:52;24.70;1.00
37281;DHT22;23169;41.804;12.596;2023-06-04T13:42:22;24.60;1.00
37281;DHT22;23169;41.804;12.596;2023-06-04T13:44:51;24.90;1.00
37281;DHT22;23169;41.804;12.596;2023-06-04T13:47:19;25.10;1.00
37281;DHT22;23169;41.804;12.596;2023-06-04T13:49:49;25.20;1.00
37281;DHT22;23169;41.804;12.596;2023-06-04T13:52:18;25.10;1.00
37281;DHT22;23169;41.804;12.596;2023-06-04T13:54:47;24.80;1.00
37281;DHT22;23169;41.804;12.596;2023-06-04T13:57:19;24.70;1.00
37281;DHT22;23169;41.804;12.596;2023-06-04T13:59:49;24.90;1.00
37281;DHT22;23169;41.804;12.596;2023-06-04T14:02:17;24.70;1.00
37281;DHT22;23169;41.804;12.596;2023-06-04T14:04:49;24.80;1.00
37281;DHT22;23169;41.804;12.596;2023-06-04T14:07:19;24.40;1.00
37281;DHT22;23169;41.804;12.596;2023-06-04T14:09:48;24.60;1.00
37281;DHT22;23169;41.804;12.596;2023-06-04T14:12:24;24.70;1.00
37281;DHT22;23169;41.804;12.596;2023-06-04T14:17:21;24.80;1.00
37281;DHT22;23169;41.804;12.596;2023-06-04T14:19:53;24.80;1.00
37281;DHT22;23169;41.804;12.596;2023-06-04T14:22:22;24.70;1.00
37281;DHT22;23169;41.804;12.596;2023-06-04T14:24:50;24.60;1.00
37281;DHT22;23169;41.804;12.596;2023-06-04T14:27:19;24.20;1.00
37281;DHT22;23169;41.804;12.596;2023-06-04T14:29:47;24.10;1.00
37281;DHT22;23169;41.804;12.596;2023-06-04T14:34:46;23.90;1.00
37281;DHT22;23169;41.804;12.596;2023-06-04T14:37:15;24.10;1.00
37281;DHT22;23169;41.804;12.596;2023-06-04T14:39:44;23.90;1.00
37281;DHT22;23169;41.804;12.596;2023-06-04T14:42:13;24.10;1.00
37281;DHT22;23169;41.804;12.596;2023-06-04T14:44:45;24.00;1.00
37281;DHT22;23169;41.804;12.596;2023-06-04T14:47:14;24.10;1.00
37281;DHT22;23169;41.804;12.596;2023-06-04T14:49:43;24.30;1.00
37281;DHT22;23169;41.804;12.596;2023-06-04T14:52:11;24.10;1.00
37281;DHT22;23169;41.804;12.596;2023-06-04T14:54:40;24.20;1.00
37281;DHT22;23169;41.804;12.596;2023-06-04T14:57:09;24.30;1.00
37281;DHT22;23169;41.804;12.596;2023-06-04T14:59:39;24.50;1.00
37281;DHT22;23169;41.804;12.596;2023-06-04T15:02:08;24.80;1.00
37281;DHT22;23169;41.804;12.596;2023-06-04T15:04:37;25.00;1.00
37281;DHT22;23169;41.804;12.596;2023-06-04T15:07:10;25.00;1.00
37281;DHT22;23169;41.804;12.596;2023-06-04T15:09:39;25.00;1.00
37281;DHT22;23169;41.804;12.596;2023-06-04T15:12:09;24.80;1.00
37281;DHT22;23169;41.804;12.596;2023-06-04T15:14:37;24.60;1.00
37281;DHT22;23169;41.804;12.596;2023-06-04T15:17:06;24.40;1.00
37281;DHT22;23169;41.804;12.596;2023-06-04T15:19:35;24.30;1.00
37281;DHT22;23169;41.804;12.596;2023-06-04T15:22:08;24.20;1.00
37281;DHT22;23169;41.804;12.596;2023-06-04T15:24:37;24.10;1.00
37281;DHT22;23169;41.804;12.596;2023-06-04T15:29:35;24.20;1.00
37281;DHT22;23169;41.804;12.596;2023-06-04T15:32:04;24.20;1.00
37281;DHT22;23169;41.804;12.596;2023-06-04T15:34:33;24.40;1.00
37281;DHT22;23169;41.804;12.596;2023-06-04T15:37:02;24.50;1.00
37281;DHT22;23169;41.804;12.596;2023-06-04T15:39:30;24.50;1.00
37281;DHT22;23169;41.804;12.596;2023-06-04T15:42:00;24.50;1.00
37281;DHT22;23169;41.804;12.596;2023-06-04T15:44:30;24.40;1.00
37281;DHT22;23169;41.804;12.596;2023-06-04T15:47:01;24.50;1.00
37281;DHT22;23169;41.804;12.596;2023-06-04T15:49:30;24.40;1.00
37281;DHT22;23169;41.804;12.596;2023-06-04T15:51:59;24.30;1.00
37281;DHT22;23169;41.804;12.596;2023-06-04T15:54:28;24.30;1.00
37281;DHT22;23169;41.804;12.596;2023-06-04T15:56:56;24.10;1.00
37281;DHT22;23169;41.804;12.596;2023-06-04T15:59:25;24.00;1.00
37281;DHT22;23169;41.804;12.596;2023-06-04T16:01:53;23.90;1.00
37281;DHT22;23169;41.804;12.596;2023-06-04T16:04:23;23.50;1.00
37281;DHT22;23169;41.804;12.596;2023-06-04T16:06:51;23.40;1.00
37281;DHT22;23169;41.804;12.596;2023-06-04T16:09:20;23.30;1.00
37281;DHT22;23169;41.804;12.596;2023-06-04T16:11:49;23.10;1.00
37281;DHT22;23169;41.804;12.596;2023-06-04T16:14:20;23.10;1.00
37281;DHT22;23169;41.804;12.596;2023-06-04T16:16:49;23.10;1.00